Terminal Aerodrome Forecast
Issued by NWS Burlington, VT

Home | Current Version | Previous Version | Text Only | Print | Product List | Glossary On
Versions: 1 2 3 4 5 6 7 8 9 10 11 12 13 14 15 16 17 18 19
000
FTUS41 KBTV 161700
TAFBTV
TAF
KBTV 161720Z 1618/1718 23006KT P6SM SCT015 OVC025
      TEMPO 1618/1620 SCT025
     FM162000 24006KT P6SM SCT035
     FM170000 VRB04KT P6SM FEW250=

USA.gov is the U.S. government's official web portal to all federal, state and local government web resources and services.